Terminal Aerodrome Forecast
Issued by NWS Sioux Falls, SD

Home | Current Version | Previous Version | Graphics & Text | Print | Product List | Glossary Off
Versions: 1 2 3 4 5 6 7 8 9 10 11 12 13 14 15 16 17 18 19 20 21 22 23 24 25 26 27 28 29

773
FTUS43 KFSD 231720
TAFSUX
TAF
KSUX 231720Z 2318/2418 21014G22KT P6SM FEW250
     FM240100 16012KT P6SM FEW250
     FM240400 15011KT P6SM FEW250 WS009/19040KT
     FM241100 17015G23KT P6SM BKN200 WS020/19045KT
     FM241300 17017G27KT P6SM BKN150=

USA.gov is the U.S. government's official web portal to all federal, state and local government web resources and services.